createdAt,value
2019-04-21T00:00:31.895Z,40.50
2019-04-21T00:05:58.939Z,41.00
2019-04-21T00:11:03.008Z,40.40
2019-04-21T00:15:53.916Z,40.60
2019-04-21T00:20:56.202Z,40.80
2019-04-21T00:26:07.692Z,41.00
2019-04-21T00:31:23.168Z,42.20
2019-04-21T00:36:16.213Z,42.80
2019-04-21T00:41:36.712Z,43.30
2019-04-21T00:46:37.450Z,44.20
2019-04-21T00:51:54.159Z,44.50
2019-04-21T00:56:56.682Z,44.20
2019-04-21T01:01:55.491Z,44.20
2019-04-21T01:07:05.596Z,46.40
2019-04-21T01:12:09.123Z,47.10
2019-04-21T01:17:20.245Z,48.50
2019-04-21T01:21:59.207Z,47.70
2019-04-21T01:27:12.675Z,49.80
2019-04-21T01:32:29.678Z,50.80
2019-04-21T01:37:40.820Z,49.60
2019-04-21T01:42:43.232Z,51.00
2019-04-21T01:47:46.312Z,49.20
2019-04-21T01:53:05.935Z,49.00
2019-04-21T01:58:01.970Z,50.20
2019-04-21T02:03:26.415Z,50.20
2019-04-21T02:08:15.287Z,51.70
2019-04-21T02:13:21.693Z,53.40
2019-04-21T02:18:27.680Z,53.20
2019-04-21T02:23:38.445Z,53.60
2019-04-21T02:39:06.213Z,54.10
2019-04-21T02:44:12.369Z,53.50
2019-04-21T02:49:37.732Z,55.10
2019-04-21T02:54:41.745Z,56.80
2019-04-21T02:59:33.674Z,57.20
2019-04-21T03:09:46.053Z,61.00
2019-04-21T03:15:04.057Z,64.80
2019-04-21T03:30:44.990Z,66.90
2019-04-21T03:35:45.533Z,67.40
2019-04-21T03:45:36.931Z,70.30
2019-04-21T03:55:53.304Z,70.00
2019-04-21T04:01:11.731Z,69.10
2019-04-21T04:06:28.063Z,69.20
2019-04-21T04:11:41.506Z,68.40
2019-04-21T04:16:47.457Z,71.00
2019-04-21T04:22:04.348Z,71.30
2019-04-21T04:31:52.855Z,69.80
2019-04-21T04:37:12.238Z,72.00
2019-04-21T04:42:27.221Z,71.20
2019-04-21T04:47:35.284Z,73.40
2019-04-21T04:52:34.525Z,76.20
2019-04-21T04:57:47.039Z,75.20
2019-04-21T05:12:44.353Z,76.70
2019-04-21T05:17:50.936Z,76.40
2019-04-21T05:22:53.147Z,79.00
2019-04-21T05:27:52.464Z,78.70
2019-04-21T05:33:27.572Z,82.00
2019-04-21T05:38:41.818Z,80.50
2019-04-21T05:43:51.654Z,76.80
2019-04-21T05:49:05.144Z,76.80
2019-04-21T05:54:14.730Z,76.60
2019-04-21T05:59:12.810Z,77.10
2019-04-21T06:04:34.748Z,76.80
2019-04-21T06:09:25.504Z,76.50
2019-04-21T06:14:42.207Z,78.00
2019-04-21T06:19:43.776Z,80.60
2019-04-21T06:24:54.678Z,78.90
2019-04-21T06:29:49.117Z,80.20
2019-04-21T06:40:19.947Z,79.50
2019-04-21T06:45:06.208Z,78.50
2019-04-21T06:50:12.103Z,74.00
2019-04-21T06:55:13.850Z,71.20
2019-04-21T07:00:19.601Z,71.60
2019-04-21T07:05:30.416Z,73.90
2019-04-21T07:10:33.264Z,72.20
2019-04-21T07:15:43.519Z,70.10
2019-04-21T07:20:50.530Z,68.50
2019-04-21T07:25:54.889Z,71.80
2019-04-21T07:30:59.472Z,72.30
2019-04-21T07:36:01.348Z,69.60
2019-04-21T07:40:59.533Z,69.10
2019-04-21T07:46:02.679Z,68.30
2019-04-21T07:51:37.713Z,66.90
2019-04-21T07:56:28.796Z,66.00
2019-04-21T08:01:50.766Z,64.00
2019-04-21T08:06:51.928Z,59.60
2019-04-21T08:11:51.742Z,56.10
2019-04-21T08:17:04.705Z,53.60
2019-04-21T08:22:11.066Z,50.60
2019-04-21T08:27:18.966Z,50.60
2019-04-21T08:32:26.631Z,48.30
2019-04-21T08:37:24.171Z,48.20
2019-04-21T08:42:35.178Z,45.50
2019-04-21T08:47:33.317Z,45.80
2019-04-21T08:52:45.708Z,46.40
2019-04-21T08:58:02.172Z,44.20
2019-04-21T09:03:02.375Z,44.00
2019-04-21T09:08:06.702Z,42.40
2019-04-21T09:13:04.967Z,41.80
2019-04-21T09:18:08.493Z,41.90
2019-04-21T09:23:19.418Z,41.00
2019-04-21T09:28:21.184Z,40.20
2019-04-21T09:33:11.656Z,40.30
2019-04-21T09:38:26.253Z,38.70
2019-04-21T09:43:31.730Z,39.90
2019-04-21T15:31:33.921Z,25.30
2019-04-21T15:36:35.192Z,27.80
2019-04-21T15:41:42.741Z,26.30
2019-04-21T15:46:48.178Z,26.90
2019-04-21T15:51:55.913Z,28.40
2019-04-21T15:57:01.232Z,28.40
2019-04-21T16:02:22.588Z,28.30
2019-04-21T16:07:29.935Z,28.80
2019-04-21T16:12:36.038Z,28.30
2019-04-21T16:17:39.693Z,29.00
2019-04-21T16:22:44.419Z,28.80
2019-04-21T16:27:49.180Z,29.20
2019-04-21T16:32:52.785Z,28.40
2019-04-21T16:38:02.527Z,28.90
2019-04-21T16:43:07.978Z,28.60
2019-04-21T16:48:12.957Z,29.50
2019-04-21T16:53:28.234Z,30.10
2019-04-21T16:58:36.745Z,29.70
2019-04-21T17:03:42.435Z,29.60
2019-04-21T17:08:50.469Z,29.90
2019-04-21T17:14:00.539Z,31.50
2019-04-21T17:19:13.688Z,31.20
2019-04-21T17:24:10.809Z,30.70
2019-04-21T17:29:14.742Z,31.10
2019-04-21T17:34:24.640Z,30.60
2019-04-21T17:39:28.916Z,31.40
2019-04-21T17:44:35.091Z,32.10
2019-04-21T17:49:39.250Z,31.40
2019-04-21T17:54:51.242Z,32.30
2019-04-21T18:00:25.400Z,31.90
2019-04-21T18:05:26.027Z,33.00
2019-04-21T18:10:27.727Z,33.70
2019-04-21T18:15:38.266Z,34.00
2019-04-21T18:20:28.295Z,34.00
2019-04-21T18:25:45.259Z,34.10
2019-04-21T18:30:48.932Z,34.10
2019-04-21T18:36:06.362Z,33.90
2019-04-21T18:41:09.945Z,33.90
2019-04-21T18:46:55.394Z,34.60
2019-04-21T18:51:59.609Z,34.10
2019-04-21T18:57:08.070Z,34.00
2019-04-21T19:02:09.900Z,34.40
2019-04-21T19:07:25.533Z,34.20
2019-04-21T19:13:08.054Z,34.30
2019-04-21T19:18:30.712Z,34.30
2019-04-21T19:22:47.699Z,33.90
2019-04-21T19:28:03.440Z,33.10
2019-04-21T19:33:10.183Z,32.90
2019-04-21T19:38:03.612Z,33.90
2019-04-21T19:43:12.560Z,33.10
2019-04-21T19:48:24.206Z,32.80
2019-04-21T19:53:32.892Z,32.40
2019-04-21T19:58:31.245Z,32.20
2019-04-21T20:03:28.485Z,31.40
2019-04-21T20:08:43.407Z,32.50
2019-04-21T20:14:27.606Z,34.00
2019-04-21T20:18:54.592Z,35.90
2019-04-21T20:24:04.831Z,35.50
2019-04-21T20:29:15.236Z,34.50
2019-04-21T20:34:34.265Z,35.30
2019-04-21T20:39:20.352Z,35.30
2019-04-21T20:44:43.801Z,33.90
2019-04-21T20:49:39.762Z,33.60
2019-04-21T20:54:48.269Z,34.80
2019-04-21T21:00:03.220Z,34.20
2019-04-21T21:04:58.989Z,36.00
2019-04-21T21:10:16.621Z,35.10
2019-04-21T21:15:18.301Z,34.40
2019-04-21T21:20:31.014Z,35.10
2019-04-21T21:25:41.897Z,36.20
2019-04-21T21:30:34.606Z,36.70
2019-04-21T21:35:38.327Z,38.60
2019-04-21T21:41:16.404Z,39.10
2019-04-21T21:46:28.621Z,40.10
2019-04-21T21:51:33.066Z,38.90
2019-04-21T21:56:25.187Z,40.30
2019-04-21T22:01:36.585Z,41.60
2019-04-21T22:06:42.065Z,43.10
2019-04-21T22:11:42.177Z,43.60
2019-04-21T22:17:00.967Z,43.00
2019-04-21T22:22:09.744Z,43.40
2019-04-21T22:26:56.972Z,44.70
2019-04-21T22:32:09.486Z,45.00
2019-04-21T22:37:23.157Z,44.60
2019-04-21T22:42:21.482Z,44.20
2019-04-21T22:47:23.786Z,44.30
2019-04-21T22:52:27.467Z,44.40
2019-04-21T22:57:32.538Z,45.60
2019-04-21T23:02:35.744Z,45.80
2019-04-21T23:07:51.269Z,46.60
2019-04-21T23:12:48.211Z,46.30
2019-04-21T23:18:08.041Z,46.70
2019-04-21T23:23:19.150Z,48.40
2019-04-21T23:28:16.110Z,48.30
2019-04-21T23:33:12.284Z,48.30
2019-04-21T23:38:14.759Z,48.10
2019-04-21T23:43:24.154Z,47.20
2019-04-21T23:48:36.523Z,48.40
2019-04-21T23:53:33.333Z,49.20
2019-04-21T23:58:37.093Z,49.60
